createdAt,value
2022-08-22T00:01:53.353Z,98.34
2022-08-22T00:03:08.327Z,97.35
2022-08-22T00:03:09.412Z,94.52
2022-08-22T00:05:28.086Z,98.16
2022-08-22T00:09:33.388Z,98.16
2022-08-22T00:13:15.455Z,98.57
2022-08-22T00:16:53.499Z,98.73
2022-08-22T00:20:57.220Z,98.57
2022-08-22T00:24:46.267Z,98.63
2022-08-22T00:28:37.631Z,98.92
2022-08-22T00:32:08.326Z,98.84
2022-08-22T00:36:15.642Z,98.91
2022-08-22T00:39:45.964Z,99.10
2022-08-22T00:43:19.869Z,99.01
2022-08-22T00:47:11.096Z,98.81
2022-08-22T00:50:52.390Z,98.46
2022-08-22T00:54:37.140Z,98.50
2022-08-22T00:58:33.908Z,98.59
2022-08-22T01:02:22.100Z,98.46
2022-08-22T01:06:03.003Z,98.25
2022-08-22T01:09:47.274Z,98.33
2022-08-22T01:13:28.775Z,98.32
2022-08-22T01:17:29.432Z,98.25
2022-08-22T01:21:16.041Z,98.09
2022-08-22T01:25:22.369Z,98.37
2022-08-22T01:29:28.387Z,98.67
2022-08-22T01:33:21.363Z,99.17
2022-08-22T01:37:05.038Z,99.69
2022-08-22T01:40:53.587Z,99.43
2022-08-22T01:44:30.302Z,99.65
2022-08-22T01:48:15.712Z,99.84
2022-08-22T01:51:50.211Z,99.78
2022-08-22T01:55:21.803Z,99.80
2022-08-22T01:59:20.142Z,99.54
2022-08-22T02:03:23.156Z,99.62
2022-08-22T02:07:31.761Z,99.50
2022-08-22T02:11:11.889Z,99.77
2022-08-22T02:14:51.988Z,99.66
2022-08-22T02:18:50.181Z,99.53
2022-08-22T02:22:34.999Z,99.55
2022-08-22T02:26:46.328Z,99.52
2022-08-22T02:30:12.686Z,99.45
2022-08-22T02:33:57.070Z,99.20
2022-08-22T02:37:31.044Z,99.35
2022-08-22T02:41:16.560Z,99.36
2022-08-22T02:44:48.714Z,99.19
2022-08-22T02:48:38.474Z,99.22
2022-08-22T02:52:40.070Z,99.24
2022-08-22T02:56:14.632Z,99.44
2022-08-22T03:00:02.934Z,99.23
2022-08-22T03:03:27.348Z,99.38
2022-08-22T03:07:14.072Z,99.16
2022-08-22T03:10:54.746Z,99.11
2022-08-22T03:14:29.359Z,99.08
2022-08-22T03:18:03.980Z,99.04
2022-08-22T03:22:24.827Z,99.01
2022-08-22T03:26:20.154Z,99.15
2022-08-22T03:29:52.286Z,99.13
2022-08-22T03:33:22.803Z,98.97
2022-08-22T03:37:16.646Z,99.04
2022-08-22T03:41:14.719Z,98.89
2022-08-22T03:45:26.006Z,99.12
2022-08-22T03:48:57.057Z,99.13
2022-08-22T03:53:15.308Z,99.06
2022-08-22T03:57:00.465Z,99.01
2022-08-22T04:00:29.229Z,99.09
2022-08-22T04:04:38.621Z,99.06
2022-08-22T04:08:30.611Z,98.87
2022-08-22T04:12:01.903Z,98.91
2022-08-22T04:15:58.643Z,98.98
2022-08-22T04:19:26.571Z,98.82
2022-08-22T04:23:31.564Z,98.88
2022-08-22T04:27:10.715Z,98.87
2022-08-22T04:30:54.699Z,99.19
2022-08-22T04:34:51.555Z,99.34
2022-08-22T04:38:31.047Z,99.35
2022-08-22T04:42:28.831Z,99.33
2022-08-22T04:46:17.075Z,99.37
2022-08-22T04:49:48.431Z,99.56
2022-08-22T04:53:40.741Z,99.52
2022-08-22T04:57:11.843Z,99.39
2022-08-22T05:01:06.492Z,99.43
2022-08-22T05:05:03.711Z,99.35
2022-08-22T05:08:31.139Z,99.11
2022-08-22T05:12:12.106Z,99.13
2022-08-22T05:15:44.090Z,99.00
2022-08-22T05:19:29.615Z,99.27
2022-08-22T05:23:18.723Z,99.05
2022-08-22T05:26:44.813Z,99.15
2022-08-22T05:30:28.415Z,99.24
2022-08-22T05:34:00.623Z,99.25
2022-08-22T05:37:44.997Z,99.32
2022-08-22T05:41:12.356Z,99.39
2022-08-22T05:44:44.874Z,99.35
2022-08-22T05:48:34.413Z,99.34
2022-08-22T05:52:34.792Z,99.32
2022-08-22T05:56:05.775Z,99.45
2022-08-22T05:59:38.272Z,99.47
2022-08-22T06:03:25.942Z,99.39
2022-08-22T06:07:14.815Z,99.56
2022-08-22T06:10:42.680Z,99.44
2022-08-22T06:14:29.285Z,99.37
2022-08-22T06:18:01.999Z,99.37
2022-08-22T06:21:39.587Z,99.48
2022-08-22T06:25:17.027Z,99.67
2022-08-22T06:28:54.622Z,99.46
2022-08-22T06:32:59.767Z,99.49
2022-08-22T06:36:48.067Z,99.52
2022-08-22T06:40:13.467Z,99.43
2022-08-22T06:43:46.912Z,99.45
2022-08-22T06:47:29.115Z,99.37
2022-08-22T06:51:01.281Z,99.29
2022-08-22T06:54:41.708Z,99.27
2022-08-22T06:58:45.517Z,99.12
2022-08-22T07:02:28.637Z,99.03
2022-08-22T07:06:16.947Z,99.02
2022-08-22T07:09:41.512Z,99.09
2022-08-22T07:13:19.388Z,98.97
2022-08-22T07:17:21.080Z,98.70
2022-08-22T07:20:49.708Z,98.75
2022-08-22T07:24:46.874Z,98.47
2022-08-22T07:28:51.639Z,98.43
2022-08-22T07:32:30.566Z,98.29
2022-08-22T07:36:01.934Z,98.42
2022-08-22T07:40:13.086Z,98.36
2022-08-22T07:43:46.922Z,98.22
2022-08-22T07:47:18.075Z,98.17
2022-08-22T07:51:17.253Z,98.21
2022-08-22T07:54:47.207Z,98.18
2022-08-22T07:58:17.005Z,98.30
2022-08-22T08:01:58.535Z,98.45
2022-08-22T08:05:48.247Z,98.46
2022-08-22T08:09:17.726Z,98.43
2022-08-22T08:13:01.673Z,98.41
2022-08-22T08:16:32.681Z,98.10
2022-08-22T08:20:09.420Z,98.18
2022-08-22T08:23:46.095Z,98.29
2022-08-22T08:27:39.509Z,98.26
2022-08-22T08:31:15.933Z,98.42
2022-08-22T08:34:40.179Z,98.32
2022-08-22T08:38:23.226Z,98.37
2022-08-22T08:41:55.100Z,98.26
2022-08-22T08:46:07.741Z,98.33
2022-08-22T08:49:42.140Z,98.30
2022-08-22T08:53:19.108Z,98.03
2022-08-22T08:57:31.037Z,98.12
2022-08-22T09:01:19.440Z,98.18
2022-08-22T09:05:16.422Z,98.39
2022-08-22T09:09:12.231Z,98.10
2022-08-22T09:13:12.963Z,97.70
2022-08-22T09:16:36.799Z,97.46
2022-08-22T09:20:46.340Z,97.54
2022-08-22T09:24:17.998Z,97.59
2022-08-22T09:28:20.376Z,97.80
2022-08-22T09:32:20.443Z,97.83
2022-08-22T09:40:16.242Z,97.98
2022-08-22T09:40:18.882Z,97.94
2022-08-22T09:44:08.539Z,97.98
2022-08-22T09:48:02.229Z,98.27
2022-08-22T09:52:05.276Z,97.59
2022-08-22T09:55:41.409Z,97.54
2022-08-22T09:59:40.163Z,97.54
2022-08-22T10:03:58.467Z,97.39
2022-08-22T10:07:52.678Z,97.18
2022-08-22T10:11:38.773Z,96.88
2022-08-22T10:15:36.896Z,96.52
2022-08-22T10:19:36.933Z,96.38
2022-08-22T10:23:21.457Z,96.56
2022-08-22T10:26:51.969Z,97.15
2022-08-22T10:30:54.895Z,96.38
2022-08-22T10:34:25.443Z,95.93
2022-08-22T10:38:25.280Z,94.90
2022-08-22T10:42:28.299Z,95.27
2022-08-22T10:46:03.504Z,94.27
2022-08-22T10:49:52.544Z,93.99
2022-08-22T10:53:53.517Z,92.17
2022-08-22T10:57:33.117Z,93.01
2022-08-22T11:01:15.119Z,93.33
2022-08-22T11:05:32.691Z,92.14
2022-08-22T11:09:11.469Z,91.47
2022-08-22T11:12:41.751Z,91.15
2022-08-22T11:16:36.798Z,90.86
2022-08-22T11:20:19.438Z,90.87
2022-08-22T11:23:46.212Z,90.04
2022-08-22T11:28:01.516Z,89.84
2022-08-22T11:31:51.662Z,86.69
2022-08-22T11:35:24.223Z,85.05
2022-08-22T11:39:40.263Z,81.71
2022-08-22T11:43:34.810Z,81.26
2022-08-22T11:47:19.887Z,82.15
2022-08-22T11:51:03.149Z,82.56
2022-08-22T11:55:16.148Z,82.45
2022-08-22T11:58:51.315Z,81.67
2022-08-22T12:02:42.467Z,81.12
2022-08-22T12:06:56.100Z,81.62
2022-08-22T12:10:27.189Z,81.77
2022-08-22T12:14:06.381Z,82.41
2022-08-22T12:18:17.755Z,82.99
2022-08-22T12:21:46.175Z,83.05
2022-08-22T12:25:51.743Z,83.14
2022-08-22T12:29:39.632Z,82.82
2022-08-22T12:33:30.539Z,83.09
2022-08-22T12:37:23.744Z,82.82
2022-08-22T12:41:03.841Z,83.26
2022-08-22T12:44:36.919Z,83.06
2022-08-22T12:48:36.051Z,83.15
2022-08-22T12:52:08.172Z,82.81
2022-08-22T12:56:18.565Z,82.59
2022-08-22T13:00:26.767Z,82.58
2022-08-22T13:03:59.678Z,82.62
2022-08-22T13:07:35.379Z,82.97
2022-08-22T13:11:17.493Z,82.99
2022-08-22T13:14:49.168Z,82.77
2022-08-22T13:18:31.187Z,82.52
2022-08-22T13:22:08.227Z,82.23
2022-08-22T13:26:07.638Z,82.61
2022-08-22T13:29:42.848Z,82.81
2022-08-22T13:33:34.311Z,82.57
2022-08-22T13:37:24.408Z,82.30
2022-08-22T13:40:49.290Z,81.99
2022-08-22T13:44:49.557Z,82.55
2022-08-22T13:48:15.630Z,83.14
2022-08-22T13:52:29.811Z,83.65
2022-08-22T13:56:03.972Z,84.82
2022-08-22T13:59:53.642Z,84.57
2022-08-22T14:03:27.440Z,86.70
2022-08-22T14:07:32.605Z,88.46
2022-08-22T14:11:06.625Z,88.87
2022-08-22T14:14:35.459Z,89.91
2022-08-22T14:18:32.369Z,90.74
2022-08-22T14:22:01.135Z,91.24
2022-08-22T14:25:36.816Z,91.85
2022-08-22T14:29:38.801Z,92.44
2022-08-22T14:33:23.644Z,92.95
2022-08-22T14:37:04.121Z,93.11
2022-08-22T14:40:54.337Z,92.37
2022-08-22T14:44:32.350Z,92.26
2022-08-22T14:48:31.369Z,92.38
2022-08-22T14:52:05.145Z,92.27
2022-08-22T14:55:30.726Z,92.15
2022-08-22T14:59:14.827Z,91.64
2022-08-22T15:02:44.997Z,91.33
2022-08-22T15:06:48.240Z,91.71
2022-08-22T15:10:37.312Z,91.55
2022-08-22T15:14:12.598Z,91.62
2022-08-22T15:17:45.407Z,91.69
2022-08-22T15:21:30.294Z,91.54
2022-08-22T15:25:28.769Z,91.31
2022-08-22T15:29:01.736Z,90.98
2022-08-22T15:32:41.937Z,91.17
2022-08-22T15:36:18.856Z,91.47
2022-08-22T15:40:11.903Z,91.65
2022-08-22T15:43:44.782Z,92.74
2022-08-22T15:47:34.993Z,92.83
2022-08-22T15:51:09.454Z,93.36
2022-08-22T15:54:41.558Z,93.40
2022-08-22T15:58:32.254Z,93.80
2022-08-22T16:01:59.343Z,93.86
2022-08-22T16:05:49.016Z,93.77
2022-08-22T16:09:45.708Z,94.10
2022-08-22T16:13:35.530Z,93.85
2022-08-22T16:17:04.057Z,94.20
2022-08-22T16:20:37.462Z,94.09
2022-08-22T16:24:14.035Z,94.44
2022-08-22T16:27:56.716Z,94.10
2022-08-22T16:31:27.949Z,93.99
2022-08-22T16:35:04.956Z,93.87
2022-08-22T16:38:46.788Z,93.80
2022-08-22T16:42:24.150Z,93.83
2022-08-22T16:45:55.479Z,93.86
2022-08-22T16:49:35.416Z,94.10
2022-08-22T16:53:27.490Z,93.99
2022-08-22T16:57:18.674Z,94.14
2022-08-22T17:01:20.070Z,94.20
2022-08-22T17:04:50.479Z,93.96
2022-08-22T17:08:46.570Z,94.12
2022-08-22T17:12:26.984Z,94.16
2022-08-22T17:16:24.523Z,94.22
2022-08-22T17:19:55.750Z,94.53
2022-08-22T17:23:41.805Z,94.62
2022-08-22T17:27:19.310Z,94.62
2022-08-22T17:30:53.737Z,94.86
2022-08-22T17:34:49.719Z,94.85
2022-08-22T17:39:09.410Z,94.81
2022-08-22T17:42:50.160Z,94.70
2022-08-22T17:46:14.995Z,94.97
2022-08-22T17:50:03.064Z,95.04
2022-08-22T17:53:50.194Z,95.25
2022-08-22T17:57:28.188Z,95.49
2022-08-22T18:01:03.754Z,96.08
2022-08-22T18:05:02.983Z,95.76
2022-08-22T18:13:00.500Z,96.01
2022-08-22T18:16:51.664Z,96.20
2022-08-22T18:20:23.046Z,97.21
2022-08-22T18:24:14.517Z,97.59
2022-08-22T18:28:02.833Z,98.08
2022-08-22T18:32:12.574Z,98.61
2022-08-22T18:36:09.476Z,98.84
2022-08-22T18:39:43.039Z,98.83
2022-08-22T18:43:47.564Z,98.67
2022-08-22T18:47:21.010Z,99.42
2022-08-22T18:50:47.366Z,99.49
2022-08-22T18:55:03.504Z,99.57
2022-08-22T18:59:05.854Z,99.61
2022-08-22T19:03:06.505Z,99.46
2022-08-22T19:06:44.914Z,99.17
2022-08-22T19:10:29.981Z,98.81
2022-08-22T19:14:05.650Z,98.75
2022-08-22T19:18:00.286Z,98.76
2022-08-22T19:21:47.622Z,98.47
2022-08-22T19:25:12.563Z,98.57
2022-08-22T19:28:47.728Z,98.35
2022-08-22T19:32:45.393Z,98.18
2022-08-22T19:36:32.097Z,97.84
2022-08-22T19:40:10.186Z,97.78
2022-08-22T19:43:38.387Z,97.81
2022-08-22T19:47:12.175Z,98.12
2022-08-22T19:50:46.236Z,98.19
2022-08-22T19:54:26.718Z,98.09
2022-08-22T19:58:31.833Z,98.10
2022-08-22T20:02:20.701Z,98.42
2022-08-22T20:06:03.447Z,98.48
2022-08-22T20:10:07.435Z,98.40
2022-08-22T20:13:33.060Z,98.53
2022-08-22T20:17:24.775Z,98.85
2022-08-22T20:21:00.947Z,99.45
2022-08-22T20:24:52.872Z,99.49
2022-08-22T20:28:33.373Z,99.40
2022-08-22T20:31:58.894Z,99.55
2022-08-22T20:35:41.708Z,99.80
2022-08-22T20:39:19.510Z,99.95
2022-08-22T20:43:28.435Z,99.81
2022-08-22T20:47:06.093Z,99.94
2022-08-22T20:50:29.336Z,100.00
2022-08-22T20:54:20.451Z,100.00
2022-08-22T20:57:54.164Z,100.00
2022-08-22T21:01:19.866Z,100.00
2022-08-22T21:05:17.674Z,100.00
2022-08-22T21:08:39.720Z,100.00
2022-08-22T21:12:16.838Z,100.00
2022-08-22T21:16:14.152Z,100.00
2022-08-22T21:19:39.616Z,100.00
2022-08-22T21:23:15.498Z,100.00
2022-08-22T21:26:58.757Z,100.00
2022-08-22T21:30:47.324Z,100.00
2022-08-22T21:34:15.909Z,100.00
2022-08-22T21:37:47.091Z,100.00
2022-08-22T21:41:42.163Z,100.00
2022-08-22T21:45:44.166Z,100.00
2022-08-22T21:49:28.939Z,100.00
2022-08-22T21:52:58.020Z,100.00
2022-08-22T21:56:47.836Z,100.00
2022-08-22T22:00:41.385Z,100.00
2022-08-22T22:04:30.380Z,100.00
2022-08-22T22:07:52.051Z,100.00
2022-08-22T22:11:29.026Z,100.00
2022-08-22T22:15:05.976Z,100.00
2022-08-22T22:18:42.491Z,100.00
2022-08-22T22:22:21.317Z,100.00
2022-08-22T22:26:00.728Z,100.00
2022-08-22T22:29:52.082Z,100.00
2022-08-22T22:33:35.875Z,100.00
2022-08-22T22:36:57.513Z,100.00
2022-08-22T22:40:34.213Z,99.98
2022-08-22T22:44:10.833Z,100.00
2022-08-22T22:47:47.698Z,100.00
2022-08-22T22:51:43.405Z,100.00
2022-08-22T22:55:25.232Z,100.00
2022-08-22T22:59:12.897Z,100.00
2022-08-22T23:02:35.104Z,100.00
2022-08-22T23:06:18.676Z,100.00
2022-08-22T23:09:48.901Z,99.95
2022-08-22T23:13:47.583Z,98.98
2022-08-22T23:17:09.564Z,98.65
2022-08-22T23:20:46.091Z,98.58
2022-08-22T23:24:24.014Z,98.69
2022-08-22T23:28:00.294Z,98.95
2022-08-22T23:31:40.355Z,99.26
2022-08-22T23:35:13.002Z,99.75
2022-08-22T23:39:10.327Z,99.99
2022-08-22T23:42:51.107Z,100.00
2022-08-22T23:46:15.088Z,100.00
2022-08-22T23:49:49.599Z,100.00
2022-08-22T23:53:28.592Z,100.00
2022-08-22T23:57:26.326Z,100.00
